Kemps Landing, Louisiana
Current Conditions -  °F | °C
As of 2:35 PM on Friday 28 Nov 2014 (Local Time) from KHEZ Reporting Station
Clear Clear  
Wind Chill: 17°   Ceiling: Unl
Heat Index: 17°   Visibility: 10mi
Dew Point: -2°   Wind: 9mph
Humidity: 27%   Direction: 170°S
Pressure: 30.27"   Gusts: NA
Location:  31.3468°N, 91.6624°W
Report Text: KHEZ 282035Z AUTO 17008KT 10SM CLR 17/M02 A3027 RMK AO1
Loading
Personal Weather Stations






























Interactive Weather Map New forecast layout! Learn more

10-Day Weather Forecast

Advertisements
Track Severe Weather on mobile